sensor_id;sensor_type;location;lat;lon;timestamp;temperature;humidity
12520;DHT22;6325;49.540;8.364;2022-08-11T05:17:03;18.90;99.90
12520;DHT22;6325;49.540;8.364;2022-08-11T05:19:51;18.30;99.90
12520;DHT22;6325;49.540;8.364;2022-08-11T05:23:00;18.20;99.90
12520;DHT22;6325;49.540;8.364;2022-08-11T05:26:11;18.40;99.90
12520;DHT22;6325;49.540;8.364;2022-08-11T05:32:42;18.20;99.90
12520;DHT22;6325;49.540;8.364;2022-08-11T05:38:07;19.10;99.90
12520;DHT22;6325;49.540;8.364;2022-08-11T05:39:37;18.40;99.90
12520;DHT22;6325;49.540;8.364;2022-08-11T05:42:31;18.60;99.90
12520;DHT22;6325;49.540;8.364;2022-08-11T05:45:23;18.00;99.90
12520;DHT22;6325;49.540;8.364;2022-08-11T05:48:09;18.50;99.90
12520;DHT22;6325;49.540;8.364;2022-08-11T05:50:56;17.80;99.90
12520;DHT22;6325;49.540;8.364;2022-08-11T05:53:50;18.50;99.90
12520;DHT22;6325;49.540;8.364;2022-08-11T05:56:41;18.60;99.90
12520;DHT22;6325;49.540;8.364;2022-08-11T05:59:13;18.70;99.90
12520;DHT22;6325;49.540;8.364;2022-08-11T06:01:41;18.60;99.90
12520;DHT22;6325;49.540;8.364;2022-08-11T06:04:16;18.70;99.90
12520;DHT22;6325;49.540;8.364;2022-08-11T06:06:52;18.80;99.90
12520;DHT22;6325;49.540;8.364;2022-08-11T06:09:24;18.80;99.90
12520;DHT22;6325;49.540;8.364;2022-08-11T06:11:53;18.90;99.90
12520;DHT22;6325;49.540;8.364;2022-08-11T06:14:22;19.40;99.90
12520;DHT22;6325;49.540;8.364;2022-08-11T06:16:52;18.70;99.90
12520;DHT22;6325;49.540;8.364;2022-08-11T06:19:22;19.00;99.90
12520;DHT22;6325;49.540;8.364;2022-08-11T06:21:49;19.10;99.90
12520;DHT22;6325;49.540;8.364;2022-08-11T06:24:18;19.10;99.90
12520;DHT22;6325;49.540;8.364;2022-08-11T06:26:50;19.20;99.90
12520;DHT22;6325;49.540;8.364;2022-08-11T06:29:17;19.30;99.90
12520;DHT22;6325;49.540;8.364;2022-08-11T06:31:50;19.40;99.90
12520;DHT22;6325;49.540;8.364;2022-08-11T06:34:31;19.50;99.90
12520;DHT22;6325;49.540;8.364;2022-08-11T06:37:13;19.60;99.90
12520;DHT22;6325;49.540;8.364;2022-08-11T06:39:46;19.60;99.90
12520;DHT22;6325;49.540;8.364;2022-08-11T06:42:31;19.50;99.90
12520;DHT22;6325;49.540;8.364;2022-08-11T06:45:06;19.90;99.90
12520;DHT22;6325;49.540;8.364;2022-08-11T06:47:41;19.40;99.90
12520;DHT22;6325;49.540;8.364;2022-08-11T06:50:15;20.00;99.90
12520;DHT22;6325;49.540;8.364;2022-08-11T06:53:02;20.00;99.90
12520;DHT22;6325;49.540;8.364;2022-08-11T06:55:30;20.10;99.90
12520;DHT22;6325;49.540;8.364;2022-08-11T06:58:20;20.40;99.90
12520;DHT22;6325;49.540;8.364;2022-08-11T07:01:07;20.30;99.90
12520;DHT22;6325;49.540;8.364;2022-08-11T07:03:39;20.40;99.90
12520;DHT22;6325;49.540;8.364;2022-08-11T07:06:22;20.90;99.90
12520;DHT22;6325;49.540;8.364;2022-08-11T07:09:12;20.80;99.90
12520;DHT22;6325;49.540;8.364;2022-08-11T07:12:38;21.10;99.90
12520;DHT22;6325;49.540;8.364;2022-08-11T07:15:28;21.00;99.90
12520;DHT22;6325;49.540;8.364;2022-08-11T07:18:11;21.10;99.90
12520;DHT22;6325;49.540;8.364;2022-08-11T07:21:18;21.90;99.90
12520;DHT22;6325;49.540;8.364;2022-08-11T07:24:10;21.80;99.90
12520;DHT22;6325;49.540;8.364;2022-08-11T07:26:55;22.00;99.90
12520;DHT22;6325;49.540;8.364;2022-08-11T07:29:41;21.80;99.90
12520;DHT22;6325;49.540;8.364;2022-08-11T07:32:14;21.90;99.90
12520;DHT22;6325;49.540;8.364;2022-08-11T07:34:47;22.00;99.90
12520;DHT22;6325;49.540;8.364;2022-08-11T07:37:18;22.10;99.90
12520;DHT22;6325;49.540;8.364;2022-08-11T07:39:47;21.70;99.90
12520;DHT22;6325;49.540;8.364;2022-08-11T07:42:21;22.00;99.90
12520;DHT22;6325;49.540;8.364;2022-08-11T07:44:49;22.60;99.90
12520;DHT22;6325;49.540;8.364;2022-08-11T07:47:36;22.30;99.90
12520;DHT22;6325;49.540;8.364;2022-08-11T07:50:21;22.70;99.90
12520;DHT22;6325;49.540;8.364;2022-08-11T07:53:07;22.70;99.90
12520;DHT22;6325;49.540;8.364;2022-08-11T07:55:35;22.70;99.20
12520;DHT22;6325;49.540;8.364;2022-08-11T07:58:03;22.60;99.00
12520;DHT22;6325;49.540;8.364;2022-08-11T08:00:51;23.20;98.50
12520;DHT22;6325;49.540;8.364;2022-08-11T08:03:36;23.30;98.20
12520;DHT22;6325;49.540;8.364;2022-08-11T08:06:22;22.90;97.60
12520;DHT22;6325;49.540;8.364;2022-08-11T08:09:09;23.50;96.80
12520;DHT22;6325;49.540;8.364;2022-08-11T08:11:54;23.80;96.70
12520;DHT22;6325;49.540;8.364;2022-08-11T08:14:39;24.00;96.30
12520;DHT22;6325;49.540;8.364;2022-08-11T08:17:24;23.70;95.40
12520;DHT22;6325;49.540;8.364;2022-08-11T08:20:12;24.30;95.00
12520;DHT22;6325;49.540;8.364;2022-08-11T08:22:39;24.60;94.80
12520;DHT22;6325;49.540;8.364;2022-08-11T08:25:09;25.00;94.40
12520;DHT22;6325;49.540;8.364;2022-08-11T08:27:37;24.70;93.80
12520;DHT22;6325;49.540;8.364;2022-08-11T08:30:05;24.80;93.20
12520;DHT22;6325;49.540;8.364;2022-08-11T08:32:50;25.10;92.80
12520;DHT22;6325;49.540;8.364;2022-08-11T08:35:19;25.00;91.80
12520;DHT22;6325;49.540;8.364;2022-08-11T08:37:48;25.30;91.60
12520;DHT22;6325;49.540;8.364;2022-08-11T08:40:17;25.40;90.20
12520;DHT22;6325;49.540;8.364;2022-08-11T08:42:48;25.60;90.20
12520;DHT22;6325;49.540;8.364;2022-08-11T08:45:18;25.70;89.00
12520;DHT22;6325;49.540;8.364;2022-08-11T08:47:47;25.60;89.40
12520;DHT22;6325;49.540;8.364;2022-08-11T08:50:20;26.00;86.90
12520;DHT22;6325;49.540;8.364;2022-08-11T08:52:52;26.20;86.10
12520;DHT22;6325;49.540;8.364;2022-08-11T08:55:21;26.10;86.00
12520;DHT22;6325;49.540;8.364;2022-08-11T08:57:49;26.60;83.50
12520;DHT22;6325;49.540;8.364;2022-08-11T09:00:18;26.40;81.90
12520;DHT22;6325;49.540;8.364;2022-08-11T09:02:46;26.60;79.40
12520;DHT22;6325;49.540;8.364;2022-08-11T09:05:16;26.30;80.30
12520;DHT22;6325;49.540;8.364;2022-08-11T09:07:43;27.10;79.00
12520;DHT22;6325;49.540;8.364;2022-08-11T09:10:13;27.50;79.80
12520;DHT22;6325;49.540;8.364;2022-08-11T09:12:44;27.30;78.00
12520;DHT22;6325;49.540;8.364;2022-08-11T09:15:11;27.40;76.90
12520;DHT22;6325;49.540;8.364;2022-08-11T09:17:42;27.50;77.40
12520;DHT22;6325;49.540;8.364;2022-08-11T09:20:12;27.60;73.50
12520;DHT22;6325;49.540;8.364;2022-08-11T09:22:42;27.60;75.00
12520;DHT22;6325;49.540;8.364;2022-08-11T09:25:30;27.80;75.70
12520;DHT22;6325;49.540;8.364;2022-08-11T09:28:17;27.90;75.10
12520;DHT22;6325;49.540;8.364;2022-08-11T09:30:47;27.90;74.30
12520;DHT22;6325;49.540;8.364;2022-08-11T09:33:18;28.10;71.90
12520;DHT22;6325;49.540;8.364;2022-08-11T09:35:48;28.30;73.90
12520;DHT22;6325;49.540;8.364;2022-08-11T09:38:18;28.50;73.00
12520;DHT22;6325;49.540;8.364;2022-08-11T09:41:05;28.70;71.90
12520;DHT22;6325;49.540;8.364;2022-08-11T09:43:36;28.90;73.30
12520;DHT22;6325;49.540;8.364;2022-08-11T09:46:24;29.00;71.20
12520;DHT22;6325;49.540;8.364;2022-08-11T09:48:56;28.90;70.10
12520;DHT22;6325;49.540;8.364;2022-08-11T09:51:25;29.10;70.20
12520;DHT22;6325;49.540;8.364;2022-08-11T09:53:55;29.20;72.10
12520;DHT22;6325;49.540;8.364;2022-08-11T09:56:23;29.20;69.50
12520;DHT22;6325;49.540;8.364;2022-08-11T09:59:09;29.00;69.10
12520;DHT22;6325;49.540;8.364;2022-08-11T10:01:40;29.30;67.90
12520;DHT22;6325;49.540;8.364;2022-08-11T10:04:12;29.40;67.80
12520;DHT22;6325;49.540;8.364;2022-08-11T10:06:42;29.40;65.30
12520;DHT22;6325;49.540;8.364;2022-08-11T10:09:28;29.50;66.30
12520;DHT22;6325;49.540;8.364;2022-08-11T10:12:00;29.80;65.70
12520;DHT22;6325;49.540;8.364;2022-08-11T10:14:30;30.00;64.40
12520;DHT22;6325;49.540;8.364;2022-08-11T10:17:17;30.10;62.20
12520;DHT22;6325;49.540;8.364;2022-08-11T10:19:46;30.30;60.80
12520;DHT22;6325;49.540;8.364;2022-08-11T10:22:15;29.80;61.00
12520;DHT22;6325;49.540;8.364;2022-08-11T10:25:01;30.10;59.40
12520;DHT22;6325;49.540;8.364;2022-08-11T10:27:47;30.30;58.80
12520;DHT22;6325;49.540;8.364;2022-08-11T10:30:19;30.30;60.40
12520;DHT22;6325;49.540;8.364;2022-08-11T10:33:04;30.10;58.90
12520;DHT22;6325;49.540;8.364;2022-08-11T10:35:48;30.10;59.30
12520;DHT22;6325;49.540;8.364;2022-08-11T10:38:16;30.10;59.80
12520;DHT22;6325;49.540;8.364;2022-08-11T10:40:45;30.50;57.20
12520;DHT22;6325;49.540;8.364;2022-08-11T10:43:33;30.30;56.80
12520;DHT22;6325;49.540;8.364;2022-08-11T10:46:00;29.80;56.90
12520;DHT22;6325;49.540;8.364;2022-08-11T10:48:45;30.10;57.80
12520;DHT22;6325;49.540;8.364;2022-08-11T10:51:13;29.80;57.00
12520;DHT22;6325;49.540;8.364;2022-08-11T10:53:41;29.80;56.30
12520;DHT22;6325;49.540;8.364;2022-08-11T10:56:28;30.10;57.00
12520;DHT22;6325;49.540;8.364;2022-08-11T10:59:13;30.30;56.80
12520;DHT22;6325;49.540;8.364;2022-08-11T11:01:43;30.70;55.90
12520;DHT22;6325;49.540;8.364;2022-08-11T11:04:12;30.80;55.70
12520;DHT22;6325;49.540;8.364;2022-08-11T11:06:47;30.50;54.50
12520;DHT22;6325;49.540;8.364;2022-08-11T11:09:18;31.00;54.30
12520;DHT22;6325;49.540;8.364;2022-08-11T11:11:49;30.80;55.20
12520;DHT22;6325;49.540;8.364;2022-08-11T11:14:35;30.40;55.30
12520;DHT22;6325;49.540;8.364;2022-08-11T11:17:26;30.90;54.70
12520;DHT22;6325;49.540;8.364;2022-08-11T11:20:14;30.80;53.70
12520;DHT22;6325;49.540;8.364;2022-08-11T11:22:43;30.90;54.40
12520;DHT22;6325;49.540;8.364;2022-08-11T11:25:21;31.00;54.30
12520;DHT22;6325;49.540;8.364;2022-08-11T11:28:02;30.60;52.20
12520;DHT22;6325;49.540;8.364;2022-08-11T11:30:41;31.30;52.60
12520;DHT22;6325;49.540;8.364;2022-08-11T11:33:22;31.40;53.40
12520;DHT22;6325;49.540;8.364;2022-08-11T20:36:00;24.30;55.30
12520;DHT22;6325;49.540;8.364;2022-08-11T20:38:47;24.10;55.90
12520;DHT22;6325;49.540;8.364;2022-08-11T20:41:33;24.60;56.50
12520;DHT22;6325;49.540;8.364;2022-08-11T20:44:18;24.00;56.00
12520;DHT22;6325;49.540;8.364;2022-08-11T20:47:04;24.40;56.70
12520;DHT22;6325;49.540;8.364;2022-08-11T20:49:50;23.80;56.00
12520;DHT22;6325;49.540;8.364;2022-08-11T20:52:34;24.00;56.90
12520;DHT22;6325;49.540;8.364;2022-08-11T20:55:20;23.70;56.70
12520;DHT22;6325;49.540;8.364;2022-08-11T20:58:06;23.60;57.30
12520;DHT22;6325;49.540;8.364;2022-08-11T21:00:52;23.60;57.70
12520;DHT22;6325;49.540;8.364;2022-08-11T21:03:37;23.60;58.40
12520;DHT22;6325;49.540;8.364;2022-08-11T21:06:23;23.90;58.30
12520;DHT22;6325;49.540;8.364;2022-08-11T21:09:09;23.40;58.20
12520;DHT22;6325;49.540;8.364;2022-08-11T21:11:56;23.50;59.00
12520;DHT22;6325;49.540;8.364;2022-08-11T21:14:41;23.40;59.40
12520;DHT22;6325;49.540;8.364;2022-08-11T21:17:28;23.50;59.40
12520;DHT22;6325;49.540;8.364;2022-08-11T21:20:14;23.30;58.70
12520;DHT22;6325;49.540;8.364;2022-08-11T21:23:02;23.20;59.60
12520;DHT22;6325;49.540;8.364;2022-08-11T21:25:49;23.20;59.50
12520;DHT22;6325;49.540;8.364;2022-08-11T21:28:38;22.90;59.00
12520;DHT22;6325;49.540;8.364;2022-08-11T21:31:24;22.70;59.50
12520;DHT22;6325;49.540;8.364;2022-08-11T21:34:10;23.00;60.40
12520;DHT22;6325;49.540;8.364;2022-08-11T21:36:57;23.20;61.50
12520;DHT22;6325;49.540;8.364;2022-08-11T21:39:44;23.00;62.00
12520;DHT22;6325;49.540;8.364;2022-08-11T21:42:31;23.30;61.10
12520;DHT22;6325;49.540;8.364;2022-08-11T21:45:19;23.00;60.90
12520;DHT22;6325;49.540;8.364;2022-08-11T21:48:05;22.70;61.10
12520;DHT22;6325;49.540;8.364;2022-08-11T21:50:51;22.80;62.10
12520;DHT22;6325;49.540;8.364;2022-08-11T21:53:36;22.70;61.80
12520;DHT22;6325;49.540;8.364;2022-08-11T21:56:22;22.70;62.90
12520;DHT22;6325;49.540;8.364;2022-08-11T21:59:09;22.50;62.70
12520;DHT22;6325;49.540;8.364;2022-08-11T22:01:56;22.90;64.10
12520;DHT22;6325;49.540;8.364;2022-08-11T22:04:41;22.30;64.10
12520;DHT22;6325;49.540;8.364;2022-08-11T22:07:27;23.00;65.70
12520;DHT22;6325;49.540;8.364;2022-08-11T22:10:12;22.60;67.20
12520;DHT22;6325;49.540;8.364;2022-08-11T22:12:57;22.50;69.20
12520;DHT22;6325;49.540;8.364;2022-08-11T22:15:42;22.50;69.20
12520;DHT22;6325;49.540;8.364;2022-08-11T22:18:29;22.50;69.60
12520;DHT22;6325;49.540;8.364;2022-08-11T22:21:14;22.40;70.70
12520;DHT22;6325;49.540;8.364;2022-08-11T22:24:00;22.70;71.20
12520;DHT22;6325;49.540;8.364;2022-08-11T22:26:45;22.00;71.70
12520;DHT22;6325;49.540;8.364;2022-08-11T22:29:30;22.10;73.00
12520;DHT22;6325;49.540;8.364;2022-08-11T22:32:16;22.40;74.50
12520;DHT22;6325;49.540;8.364;2022-08-11T22:35:03;22.10;74.80
12520;DHT22;6325;49.540;8.364;2022-08-11T22:37:48;21.80;75.60
12520;DHT22;6325;49.540;8.364;2022-08-11T22:40:33;21.70;76.40
12520;DHT22;6325;49.540;8.364;2022-08-11T22:43:18;21.30;77.00
12520;DHT22;6325;49.540;8.364;2022-08-11T22:46:02;21.80;79.20
12520;DHT22;6325;49.540;8.364;2022-08-11T22:48:47;21.70;80.30
12520;DHT22;6325;49.540;8.364;2022-08-11T22:51:34;22.00;82.00
12520;DHT22;6325;49.540;8.364;2022-08-11T22:54:21;22.00;81.60
12520;DHT22;6325;49.540;8.364;2022-08-11T22:57:05;21.50;81.20
12520;DHT22;6325;49.540;8.364;2022-08-11T22:59:51;21.20;81.10
12520;DHT22;6325;49.540;8.364;2022-08-11T23:02:36;22.10;83.50
12520;DHT22;6325;49.540;8.364;2022-08-11T23:05:21;21.40;82.40
12520;DHT22;6325;49.540;8.364;2022-08-11T23:08:08;21.30;81.80
12520;DHT22;6325;49.540;8.364;2022-08-11T23:10:55;21.40;83.30
12520;DHT22;6325;49.540;8.364;2022-08-11T23:13:41;21.80;84.80
12520;DHT22;6325;49.540;8.364;2022-08-11T23:16:26;20.90;83.70
12520;DHT22;6325;49.540;8.364;2022-08-11T23:19:13;21.30;84.40
12520;DHT22;6325;49.540;8.364;2022-08-11T23:21:57;21.10;85.30
12520;DHT22;6325;49.540;8.364;2022-08-11T23:24:43;21.20;86.70
12520;DHT22;6325;49.540;8.364;2022-08-11T23:27:27;21.20;88.00
12520;DHT22;6325;49.540;8.364;2022-08-11T23:30:12;21.90;88.80
12520;DHT22;6325;49.540;8.364;2022-08-11T23:32:58;20.80;89.30
12520;DHT22;6325;49.540;8.364;2022-08-11T23:35:45;21.20;90.60
12520;DHT22;6325;49.540;8.364;2022-08-11T23:38:33;20.60;90.00
12520;DHT22;6325;49.540;8.364;2022-08-11T23:41:20;21.00;89.40
12520;DHT22;6325;49.540;8.364;2022-08-11T23:44:06;21.00;90.00
12520;DHT22;6325;49.540;8.364;2022-08-11T23:46:53;21.00;90.30
12520;DHT22;6325;49.540;8.364;2022-08-11T23:49:38;20.90;89.40
12520;DHT22;6325;49.540;8.364;2022-08-11T23:52:24;20.90;87.90
12520;DHT22;6325;49.540;8.364;2022-08-11T23:55:10;20.90;88.80
12520;DHT22;6325;49.540;8.364;2022-08-11T23:57:56;20.90;86.30
